createdAt,value
2018-09-17T00:01:36.408Z,14.63
2018-09-17T00:02:36.375Z,14.58
2018-09-17T00:04:29.782Z,14.54
2018-09-17T00:05:29.637Z,14.54
2018-09-17T00:07:22.979Z,14.53
2018-09-17T00:08:22.909Z,14.53
2018-09-17T00:10:16.247Z,14.55
2018-09-17T00:11:16.187Z,14.54
2018-09-17T00:13:30.508Z,14.48
2018-09-17T00:15:02.807Z,14.51
2018-09-17T00:16:02.782Z,14.41
2018-09-17T00:17:56.124Z,14.37
2018-09-17T00:18:56.054Z,14.43
2018-09-17T00:20:48.868Z,14.36
2018-09-17T00:21:48.832Z,14.40
2018-09-17T00:23:42.182Z,14.40
2018-09-17T00:24:42.107Z,14.36
2018-09-17T00:26:35.427Z,14.33
2018-09-17T00:27:35.385Z,14.25
2018-09-17T00:29:28.694Z,14.33
2018-09-17T00:30:28.669Z,14.28
2018-09-17T00:32:21.984Z,14.29
2018-09-17T00:33:21.952Z,14.25
2018-09-17T00:35:16.267Z,14.23
2018-09-17T00:36:16.213Z,14.23
2018-09-17T00:38:09.035Z,14.22
2018-09-17T00:39:08.993Z,14.20
2018-09-17T00:41:02.292Z,14.20
2018-09-17T00:42:02.274Z,14.22
2018-09-17T00:43:55.590Z,14.20
2018-09-17T00:44:55.537Z,14.05
2018-09-17T00:46:48.827Z,14.03
2018-09-17T00:47:48.791Z,13.96
2018-09-17T00:49:41.619Z,13.96
2018-09-17T00:50:41.576Z,13.78
2018-09-17T00:52:34.412Z,13.86
2018-09-17T00:53:34.374Z,13.78
2018-09-17T00:55:27.653Z,13.89
2018-09-17T00:56:27.623Z,13.75
2018-09-17T00:58:20.454Z,13.74
2018-09-17T00:59:20.400Z,13.67
2018-09-17T01:01:13.205Z,13.87
2018-09-17T01:02:13.149Z,13.77
2018-09-17T01:04:05.979Z,13.79
2018-09-17T01:05:05.940Z,13.75
2018-09-17T01:06:59.245Z,13.78
2018-09-17T01:07:59.209Z,13.71
2018-09-17T01:09:52.545Z,13.65
2018-09-17T01:10:52.478Z,13.60
2018-09-17T01:12:45.796Z,13.63
2018-09-17T01:13:45.778Z,13.59
2018-09-17T11:57:00.110Z,35.30
2018-09-17T11:58:00.070Z,35.33
2018-09-17T11:59:54.409Z,35.78
2018-09-17T12:00:54.394Z,35.83
2018-09-17T12:02:47.756Z,35.64
2018-09-17T12:03:47.716Z,35.45
2018-09-17T12:05:41.056Z,35.31
2018-09-17T12:06:41.031Z,35.41
2018-09-17T12:08:34.399Z,35.48
2018-09-17T12:09:34.357Z,35.61
2018-09-17T12:11:27.717Z,35.66
2018-09-17T12:12:27.682Z,35.48
2018-09-17T12:14:21.020Z,35.26
2018-09-17T12:15:20.990Z,35.14
2018-09-17T12:17:14.452Z,34.51
2018-09-17T12:18:14.313Z,34.54
2018-09-17T12:20:07.647Z,34.73
2018-09-17T12:21:07.633Z,34.57
2018-09-17T12:23:01.004Z,34.78
2018-09-17T12:24:00.986Z,34.78
2018-09-17T12:25:54.283Z,34.88
2018-09-17T12:26:54.267Z,34.90
2018-09-17T12:28:47.598Z,34.88
2018-09-17T12:29:47.568Z,34.85
2018-09-17T12:31:40.913Z,34.81
2018-09-17T12:32:40.883Z,34.80
2018-09-17T12:34:34.855Z,34.42
2018-09-17T12:35:34.206Z,34.48
2018-09-17T12:37:28.177Z,34.18
2018-09-17T12:38:27.512Z,34.13
2018-09-17T12:40:20.841Z,34.14
2018-09-17T12:41:20.808Z,33.83
2018-09-17T12:43:14.226Z,33.65
2018-09-17T12:44:14.127Z,33.71
2018-09-17T12:46:07.455Z,33.76
2018-09-17T12:47:07.433Z,33.74
2018-09-17T12:49:00.785Z,33.83
2018-09-17T12:50:00.745Z,33.53
2018-09-17T12:51:54.080Z,33.20
2018-09-17T12:52:54.054Z,33.19
2018-09-17T12:54:47.664Z,32.90
2018-09-17T12:55:47.394Z,32.87
2018-09-17T12:57:40.700Z,32.87
2018-09-17T12:58:40.655Z,32.96
2018-09-17T13:00:33.995Z,32.92
2018-09-17T13:01:33.966Z,32.93
2018-09-17T13:03:27.309Z,32.51
2018-09-17T13:04:27.269Z,32.21
2018-09-17T13:06:20.601Z,32.26
2018-09-17T13:07:20.700Z,32.16
2018-09-17T13:09:13.960Z,32.15
2018-09-17T13:10:13.880Z,32.15
2018-09-17T13:12:07.213Z,32.16
2018-09-17T13:13:07.186Z,32.18
2018-09-17T13:15:00.536Z,32.11
2018-09-17T13:16:00.498Z,32.11
2018-09-17T13:17:53.819Z,31.85
2018-09-17T13:18:53.794Z,31.84
2018-09-17T13:20:47.745Z,31.65
2018-09-17T13:21:47.115Z,31.74
2018-09-17T13:23:41.461Z,31.74
2018-09-17T13:24:41.395Z,31.62
2018-09-17T13:26:34.752Z,31.40
2018-09-17T13:27:34.734Z,31.40
2018-09-17T13:29:28.086Z,31.27
2018-09-17T13:30:28.031Z,31.42
2018-09-17T13:32:21.351Z,31.74
2018-09-17T13:33:21.361Z,31.81
2018-09-17T13:35:14.686Z,32.03
2018-09-17T13:36:14.640Z,31.87
2018-09-17T13:38:07.957Z,31.74
2018-09-17T13:39:07.952Z,31.87
2018-09-17T13:41:01.266Z,32.04
2018-09-17T13:42:01.236Z,32.19
2018-09-17T13:43:54.613Z,32.48
2018-09-17T13:44:54.573Z,32.26
2018-09-17T13:46:47.880Z,32.37
2018-09-17T13:47:47.878Z,32.43
2018-09-17T13:49:41.223Z,32.45
2018-09-17T13:50:41.178Z,32.55
2018-09-17T13:52:34.471Z,32.67
2018-09-17T13:53:34.606Z,32.67
2018-09-17T13:55:27.795Z,32.63
2018-09-17T13:56:27.775Z,32.73
2018-09-17T13:58:21.161Z,32.96
2018-09-17T13:59:21.140Z,33.17
2018-09-17T14:01:14.485Z,33.19
2018-09-17T14:02:14.462Z,33.24
2018-09-17T14:04:08.669Z,33.37
2018-09-17T14:05:07.743Z,33.39
2018-09-17T14:07:01.077Z,33.49
2018-09-17T14:08:01.058Z,33.58
2018-09-17T14:09:54.459Z,33.84
2018-09-17T14:10:54.923Z,33.86
2018-09-17T14:12:47.771Z,34.14
2018-09-17T14:13:47.763Z,34.23
2018-09-17T14:15:41.118Z,34.45
2018-09-17T14:16:41.131Z,34.50
2018-09-17T14:18:34.441Z,34.81
2018-09-17T14:19:34.412Z,34.77
2018-09-17T14:21:28.791Z,34.78
2018-09-17T14:22:28.782Z,34.88
2018-09-17T14:24:22.167Z,34.99
2018-09-17T14:25:22.134Z,35.00
2018-09-17T14:27:15.676Z,35.02
2018-09-17T14:28:15.533Z,35.02
2018-09-17T14:30:08.874Z,34.90
2018-09-17T14:31:08.841Z,34.90
2018-09-17T14:33:02.273Z,35.02
2018-09-17T14:34:02.247Z,34.92
2018-09-17T14:35:55.510Z,34.89
2018-09-17T14:36:55.462Z,34.80
2018-09-17T14:38:48.788Z,34.33
2018-09-17T14:39:48.758Z,34.16
2018-09-17T14:41:42.125Z,34.33
2018-09-17T14:42:42.082Z,34.39
2018-09-17T14:44:35.409Z,34.54
2018-09-17T14:45:35.380Z,34.55
2018-09-17T14:47:28.737Z,34.55
2018-09-17T14:48:28.705Z,34.54
2018-09-17T14:50:22.042Z,34.40
2018-09-17T14:51:22.013Z,34.54
2018-09-17T14:53:15.368Z,34.71
2018-09-17T14:54:15.349Z,34.66
2018-09-17T14:56:09.666Z,34.67
2018-09-17T14:57:09.636Z,34.83
2018-09-17T14:59:02.988Z,34.57
2018-09-17T15:00:02.955Z,34.55
2018-09-17T15:01:56.306Z,34.57
2018-09-17T15:02:56.260Z,34.70
2018-09-17T15:04:49.600Z,34.66
2018-09-17T15:05:49.654Z,34.64
2018-09-17T15:07:42.947Z,34.51
2018-09-17T15:08:42.885Z,34.36
2018-09-17T15:10:36.214Z,34.30
2018-09-17T15:11:36.254Z,34.20
2018-09-17T15:13:29.588Z,34.21
2018-09-17T15:14:29.690Z,34.27
2018-09-17T15:16:22.992Z,34.23
2018-09-17T15:17:22.835Z,34.21
2018-09-17T15:19:16.196Z,33.96
2018-09-17T15:20:16.168Z,33.90
2018-09-17T15:22:09.485Z,33.74
2018-09-17T15:23:09.456Z,33.59
2018-09-17T15:25:02.806Z,33.52
2018-09-17T15:26:02.810Z,33.30
2018-09-17T15:27:56.104Z,33.19
2018-09-17T15:28:56.071Z,33.04
2018-09-17T15:30:49.440Z,32.97
2018-09-17T15:31:49.376Z,32.90
2018-09-17T15:33:43.726Z,32.80
2018-09-17T15:34:43.714Z,32.78
2018-09-17T15:36:37.032Z,32.73
2018-09-17T15:37:36.998Z,32.68
2018-09-17T15:39:30.356Z,32.65
2018-09-17T15:40:30.461Z,32.46
2018-09-17T15:42:23.687Z,32.45
2018-09-17T15:43:23.633Z,32.40
2018-09-17T15:45:16.967Z,32.37
2018-09-17T15:46:16.990Z,32.36
2018-09-17T15:48:10.266Z,32.22
2018-09-17T15:49:10.221Z,32.29
2018-09-17T15:51:03.586Z,32.11
2018-09-17T15:52:03.659Z,31.96
2018-09-17T15:53:56.886Z,32.00
2018-09-17T15:54:56.858Z,31.90
2018-09-17T15:56:50.182Z,31.77
2018-09-17T15:57:50.197Z,31.77
2018-09-17T15:59:43.500Z,31.76
2018-09-17T16:00:43.471Z,31.76
2018-09-17T16:02:36.907Z,31.59
2018-09-17T16:03:36.778Z,31.61
2018-09-17T16:05:30.122Z,31.46
2018-09-17T16:06:30.062Z,31.39
2018-09-17T16:08:23.384Z,31.21
2018-09-17T16:09:23.358Z,31.14
2018-09-17T16:11:16.692Z,31.03
2018-09-17T16:12:16.666Z,30.97
2018-09-17T16:14:10.064Z,30.88
2018-09-17T16:15:09.978Z,31.02
2018-09-17T16:17:03.283Z,30.90
2018-09-17T16:18:03.268Z,30.72
2018-09-17T16:19:56.655Z,30.62
2018-09-17T16:20:56.589Z,30.65
2018-09-17T16:22:49.900Z,30.53
2018-09-17T16:23:49.893Z,30.40
2018-09-17T16:25:43.208Z,30.39
2018-09-17T16:26:43.173Z,30.25
2018-09-17T16:28:36.492Z,30.16
2018-09-17T16:29:36.463Z,29.94
2018-09-17T16:31:29.817Z,29.72
2018-09-17T16:32:29.764Z,29.61
2018-09-17T16:34:23.085Z,29.51
2018-09-17T16:35:23.069Z,29.44
2018-09-17T16:37:16.413Z,29.49
2018-09-17T16:38:16.369Z,29.53
2018-09-17T16:40:09.713Z,29.50
2018-09-17T16:41:09.656Z,29.39
2018-09-17T16:43:02.991Z,29.38
2018-09-17T16:44:02.955Z,29.26
2018-09-17T16:45:56.505Z,29.29
2018-09-17T16:46:56.287Z,29.20
2018-09-17T16:48:49.688Z,29.13
2018-09-17T16:49:49.667Z,29.01
2018-09-17T16:51:42.989Z,28.96
2018-09-17T16:52:42.966Z,28.86
2018-09-17T16:54:36.267Z,28.79
2018-09-17T16:55:36.235Z,28.70
2018-09-17T16:57:29.573Z,28.59
2018-09-17T16:58:29.537Z,28.48
2018-09-17T17:00:22.855Z,28.44
2018-09-17T17:01:22.830Z,28.39
2018-09-17T17:03:16.140Z,28.20
2018-09-17T17:04:16.104Z,28.12
2018-09-17T17:06:09.444Z,28.04
2018-09-17T17:07:09.403Z,27.96
2018-09-17T17:09:02.725Z,27.78
2018-09-17T17:10:02.721Z,27.80
2018-09-17T17:11:56.091Z,27.65
2018-09-17T17:12:56.071Z,27.58
2018-09-17T17:14:49.306Z,27.48
2018-09-17T17:15:49.296Z,27.39
2018-09-17T17:17:42.616Z,27.29
2018-09-17T17:18:42.601Z,27.26
2018-09-17T17:20:35.907Z,27.15
2018-09-17T17:21:35.868Z,27.03
2018-09-17T17:23:29.202Z,26.95
2018-09-17T17:24:29.161Z,26.77
2018-09-17T17:26:21.997Z,26.68
2018-09-17T17:27:21.962Z,26.53
2018-09-17T17:29:15.302Z,26.45
2018-09-17T17:30:15.251Z,26.41
2018-09-17T17:32:08.590Z,26.21
2018-09-17T17:33:08.545Z,26.23
2018-09-17T17:35:01.867Z,26.09
2018-09-17T17:36:01.834Z,26.13
2018-09-17T17:37:55.185Z,25.95
2018-09-17T17:38:55.139Z,25.93
2018-09-17T17:40:48.630Z,25.78
2018-09-17T17:41:48.426Z,25.66
2018-09-17T17:43:41.763Z,25.62
2018-09-17T17:44:41.721Z,25.43
2018-09-17T17:46:35.119Z,25.44
2018-09-17T17:47:35.012Z,25.25
2018-09-17T17:49:28.346Z,25.26
2018-09-17T17:50:28.287Z,25.22
2018-09-17T17:52:21.719Z,25.03
2018-09-17T17:53:21.589Z,25.03
2018-09-17T17:55:14.922Z,24.92
2018-09-17T17:56:14.882Z,24.88
2018-09-17T17:58:08.229Z,24.73
2018-09-17T17:59:08.151Z,24.63
2018-09-17T18:01:01.632Z,24.57
2018-09-17T18:02:01.449Z,24.57
2018-09-17T18:03:54.833Z,24.47
2018-09-17T18:04:54.739Z,24.36
2018-09-17T18:06:48.184Z,24.26
2018-09-17T18:07:48.020Z,24.24
2018-09-17T18:09:41.358Z,24.11
2018-09-17T18:10:41.314Z,24.13
2018-09-17T18:12:34.624Z,23.99
2018-09-17T18:13:34.591Z,23.86
2018-09-17T18:15:27.925Z,23.84
2018-09-17T18:16:27.884Z,23.74
2018-09-17T18:18:21.224Z,23.66
2018-09-17T18:19:21.185Z,23.59
2018-09-17T18:21:14.534Z,23.51
2018-09-17T18:22:14.460Z,23.48
2018-09-17T18:24:07.793Z,23.40
2018-09-17T18:25:07.755Z,23.34
2018-09-17T18:27:02.151Z,23.27
2018-09-17T18:28:02.040Z,23.17
2018-09-17T18:29:55.360Z,23.21
2018-09-17T18:30:55.319Z,23.12
2018-09-17T18:32:48.662Z,22.99
2018-09-17T18:33:48.611Z,22.90
2018-09-17T18:35:41.933Z,22.93
2018-09-17T18:36:41.899Z,22.88
2018-09-17T18:38:35.221Z,22.81
2018-09-17T18:39:35.336Z,22.70
2018-09-17T18:41:28.523Z,22.73
2018-09-17T18:42:28.486Z,22.66
2018-09-17T18:44:21.794Z,22.59
2018-09-17T18:45:21.838Z,22.55
2018-09-17T18:47:15.101Z,22.45
2018-09-17T18:48:15.102Z,22.39
2018-09-17T18:50:07.904Z,22.44
2018-09-17T18:51:07.890Z,22.33
2018-09-17T18:53:01.154Z,22.26
2018-09-17T18:54:01.240Z,22.18
2018-09-17T18:55:54.466Z,22.18
2018-09-17T18:56:54.423Z,22.06
2018-09-17T18:58:47.725Z,21.98
2018-09-17T18:59:47.752Z,22.04
2018-09-17T19:01:41.034Z,21.96
2018-09-17T19:02:41.000Z,21.92
2018-09-17T19:04:34.312Z,21.80
2018-09-17T19:05:34.275Z,21.82
2018-09-17T19:07:27.585Z,21.72
2018-09-17T19:08:27.541Z,21.69
2018-09-17T19:10:20.871Z,21.60
2018-09-17T19:11:20.836Z,21.67
2018-09-17T19:13:14.134Z,21.58
2018-09-17T19:14:14.112Z,21.46
2018-09-17T19:16:07.440Z,21.54
2018-09-17T19:17:07.406Z,21.45
2018-09-17T19:19:00.747Z,21.37
2018-09-17T19:20:00.771Z,21.43
2018-09-17T19:21:54.200Z,21.37
2018-09-17T19:22:54.089Z,21.40
2018-09-17T19:24:47.308Z,21.24
2018-09-17T19:25:47.320Z,21.15
2018-09-17T19:27:40.637Z,21.15
2018-09-17T19:28:40.560Z,21.18
2018-09-17T19:30:33.364Z,21.15
2018-09-17T19:31:33.331Z,21.06
2018-09-17T19:33:26.689Z,21.06
2018-09-17T19:34:26.643Z,21.03
2018-09-17T19:36:20.111Z,21.00
2018-09-17T19:37:19.923Z,20.96
2018-09-17T19:39:13.223Z,20.88
2018-09-17T19:40:13.202Z,20.92
2018-09-17T19:42:06.733Z,20.77
2018-09-17T19:43:06.473Z,20.77
2018-09-17T19:44:59.801Z,20.77
2018-09-17T19:45:59.817Z,20.72
2018-09-17T19:47:53.116Z,20.65
2018-09-17T19:48:53.032Z,20.60
2018-09-17T19:50:46.377Z,20.52
2018-09-17T19:51:46.333Z,20.48
2018-09-17T19:53:39.688Z,20.47
2018-09-17T19:54:39.597Z,20.52
2018-09-17T19:56:32.923Z,20.39
2018-09-17T19:57:32.888Z,20.44
2018-09-17T19:59:26.191Z,20.43
2018-09-17T20:00:26.175Z,20.28
2018-09-17T20:02:19.514Z,20.34
2018-09-17T20:03:19.444Z,20.29
2018-09-17T20:05:12.259Z,20.29
2018-09-17T20:06:12.256Z,20.29
2018-09-17T20:08:05.538Z,20.22
2018-09-17T20:09:05.490Z,20.19
2018-09-17T20:10:58.812Z,20.10
2018-09-17T20:11:58.773Z,20.11
2018-09-17T20:13:52.110Z,20.09
2018-09-17T20:14:52.059Z,20.09
2018-09-17T20:16:45.385Z,20.13
2018-09-17T20:17:45.340Z,20.02
2018-09-17T20:19:38.662Z,19.99
2018-09-17T20:20:38.620Z,19.96
2018-09-17T20:22:31.957Z,20.00
2018-09-17T20:23:31.905Z,19.85
2018-09-17T20:25:25.214Z,19.85
2018-09-17T20:26:25.186Z,19.86
2018-09-17T20:28:18.515Z,19.76
2018-09-17T20:29:18.455Z,19.74
2018-09-17T20:31:11.851Z,19.74
2018-09-17T20:32:11.764Z,19.66
2018-09-17T20:34:05.097Z,19.71
2018-09-17T20:35:05.041Z,19.58
2018-09-17T20:36:58.354Z,19.56
2018-09-17T20:37:58.328Z,19.59
2018-09-17T20:39:51.639Z,19.54
2018-09-17T20:40:51.596Z,19.41
2018-09-17T20:42:44.899Z,19.30
2018-09-17T20:43:44.882Z,19.36
2018-09-17T20:45:38.205Z,19.33
2018-09-17T20:46:38.160Z,19.16
2018-09-17T20:48:31.489Z,19.22
2018-09-17T20:49:31.531Z,19.26
2018-09-17T20:51:24.779Z,19.24
2018-09-17T20:52:24.730Z,19.24
2018-09-17T20:54:18.054Z,19.18
2018-09-17T20:55:18.140Z,19.16
2018-09-17T20:57:11.310Z,19.09
2018-09-17T20:58:11.276Z,19.15
2018-09-17T21:00:04.601Z,19.04
2018-09-17T21:01:04.639Z,18.98
2018-09-17T21:02:57.887Z,19.00
2018-09-17T21:03:57.855Z,19.00
2018-09-17T21:05:51.169Z,18.93
2018-09-17T21:06:51.173Z,18.92
2018-09-17T21:08:44.421Z,18.99
2018-09-17T21:09:44.396Z,18.88
2018-09-17T21:11:37.720Z,18.92
2018-09-17T21:12:37.709Z,18.89
2018-09-17T21:14:30.987Z,18.84
2018-09-17T21:15:30.945Z,18.90
2018-09-17T21:17:24.247Z,18.77
2018-09-17T21:18:24.228Z,18.77
2018-09-17T21:20:18.544Z,18.78
2018-09-17T21:21:18.492Z,18.73
2018-09-17T21:23:11.815Z,18.68
2018-09-17T21:24:11.781Z,18.62
2018-09-17T21:26:05.103Z,18.59
2018-09-17T21:27:05.051Z,18.63
2018-09-17T21:28:58.392Z,18.60
2018-09-17T21:29:58.332Z,18.55
2018-09-17T21:31:51.662Z,18.47
2018-09-17T21:32:51.611Z,18.45
2018-09-17T21:34:44.915Z,18.47
2018-09-17T21:35:44.882Z,18.44
2018-09-17T21:37:38.220Z,18.47
2018-09-17T21:38:38.182Z,18.43
2018-09-17T21:40:31.488Z,18.52
2018-09-17T21:41:31.448Z,18.43
2018-09-17T21:43:24.330Z,18.45
2018-09-17T21:44:24.234Z,18.38
2018-09-17T21:46:17.548Z,18.52
2018-09-17T21:47:17.495Z,18.38
2018-09-17T21:49:10.808Z,18.44
2018-09-17T21:50:10.782Z,18.45
2018-09-17T21:52:04.088Z,18.38
2018-09-17T21:53:04.053Z,18.41
2018-09-17T21:54:56.873Z,18.40
2018-09-17T21:55:56.836Z,18.35
2018-09-17T21:57:50.156Z,18.37
2018-09-17T21:58:50.107Z,18.34
2018-09-17T22:00:43.423Z,18.38
2018-09-17T22:01:43.383Z,18.34
2018-09-17T22:03:36.211Z,18.33
2018-09-17T22:04:36.161Z,18.34
2018-09-17T22:06:28.998Z,18.35
2018-09-17T22:07:28.942Z,18.33
2018-09-17T22:09:21.743Z,18.29
2018-09-17T22:10:21.722Z,18.31
2018-09-17T22:12:15.052Z,18.23
2018-09-17T22:13:15.010Z,18.26
2018-09-17T22:15:07.808Z,18.29
2018-09-17T22:16:07.783Z,18.29
2018-09-17T22:18:01.109Z,18.26
2018-09-17T22:19:01.072Z,18.20
2018-09-17T22:20:54.367Z,18.26
2018-09-17T22:21:54.340Z,18.15
2018-09-17T22:23:47.659Z,18.16
2018-09-17T22:24:47.611Z,18.15
2018-09-17T22:26:40.938Z,18.11
2018-09-17T22:27:40.884Z,18.10
2018-09-17T22:29:34.194Z,18.05
2018-09-17T22:30:34.150Z,18.13
2018-09-17T22:32:27.476Z,18.11
2018-09-17T22:33:27.433Z,17.98
2018-09-17T22:35:20.273Z,18.05
2018-09-17T22:36:20.263Z,17.97
2018-09-17T22:38:13.044Z,18.01
2018-09-17T22:39:13.016Z,18.03
2018-09-17T22:41:05.804Z,17.95
2018-09-17T22:42:05.822Z,17.97
2018-09-17T22:43:58.598Z,17.92
2018-09-17T22:44:58.550Z,17.86
2018-09-17T22:46:51.855Z,17.90
2018-09-17T22:47:51.821Z,17.90
2018-09-17T22:49:45.153Z,17.82
2018-09-17T22:50:45.100Z,17.83
2018-09-17T22:52:38.405Z,17.72
2018-09-17T22:53:38.370Z,17.71
2018-09-17T22:55:31.669Z,17.67
2018-09-17T22:56:31.639Z,17.60
2018-09-17T22:58:24.966Z,17.56
2018-09-17T22:59:24.923Z,17.51
2018-09-17T23:01:17.730Z,17.46
2018-09-17T23:02:17.691Z,17.56
2018-09-17T23:04:11.034Z,17.49
2018-09-17T23:05:10.969Z,17.34
2018-09-17T23:07:04.277Z,17.36
2018-09-17T23:08:04.239Z,17.38
2018-09-17T23:09:57.564Z,17.36
2018-09-17T23:10:57.514Z,17.31
2018-09-17T23:12:50.825Z,17.30
2018-09-17T23:13:50.790Z,17.36
2018-09-17T23:15:44.107Z,17.42
2018-09-17T23:16:44.051Z,17.34
2018-09-17T23:18:37.411Z,17.39
2018-09-17T23:19:37.331Z,17.39
2018-09-17T23:21:30.146Z,17.38
2018-09-17T23:22:30.111Z,17.38
2018-09-17T23:24:23.427Z,17.36
2018-09-17T23:25:23.383Z,17.39
2018-09-17T23:27:16.688Z,17.36
2018-09-17T23:28:16.647Z,17.34
2018-09-17T23:30:10.060Z,17.26
2018-09-17T23:31:10.013Z,17.27
2018-09-17T23:33:03.317Z,17.24
2018-09-17T23:34:03.278Z,17.23
2018-09-17T23:35:56.645Z,17.24
2018-09-17T23:36:56.549Z,17.20
2018-09-17T23:38:49.868Z,17.23
2018-09-17T23:39:49.818Z,17.20
2018-09-17T23:41:43.148Z,17.16
2018-09-17T23:42:43.098Z,17.20
2018-09-17T23:44:36.416Z,17.16
2018-09-17T23:45:36.362Z,17.12
2018-09-17T23:47:29.676Z,17.09
2018-09-17T23:48:29.639Z,17.11
2018-09-17T23:50:22.961Z,17.08
2018-09-17T23:51:22.903Z,17.06
2018-09-17T23:53:16.221Z,16.99
2018-09-17T23:54:16.183Z,17.06
2018-09-17T23:56:09.497Z,17.04
2018-09-17T23:57:09.457Z,16.96
2018-09-17T23:59:02.776Z,16.93
